sensor_id;sensor_type;location;lat;lon;timestamp;P1;durP1;ratioP1;P2;durP2;ratioP2
11386;SDS011;5748;53.102;8.456;2024-03-06T00:00:35;4.83;;;4.43;;
11386;SDS011;5748;53.102;8.456;2024-03-06T00:03:02;4.90;;;4.50;;
11386;SDS011;5748;53.102;8.456;2024-03-06T00:05:29;5.33;;;4.83;;
11386;SDS011;5748;53.102;8.456;2024-03-06T00:07:58;4.87;;;4.47;;
11386;SDS011;5748;53.102;8.456;2024-03-06T00:10:25;5.00;;;4.50;;
11386;SDS011;5748;53.102;8.456;2024-03-06T00:12:52;4.80;;;4.40;;
11386;SDS011;5748;53.102;8.456;2024-03-06T00:15:19;5.13;;;4.63;;
11386;SDS011;5748;53.102;8.456;2024-03-06T00:17:46;4.90;;;4.47;;
11386;SDS011;5748;53.102;8.456;2024-03-06T00:20:14;5.13;;;4.63;;
11386;SDS011;5748;53.102;8.456;2024-03-06T00:22:41;4.97;;;4.57;;
11386;SDS011;5748;53.102;8.456;2024-03-06T00:25:10;5.23;;;4.73;;
11386;SDS011;5748;53.102;8.456;2024-03-06T00:27:37;5.30;;;4.80;;
11386;SDS011;5748;53.102;8.456;2024-03-06T00:30:05;4.80;;;4.40;;
11386;SDS011;5748;53.102;8.456;2024-03-06T00:32:33;5.03;;;4.63;;
11386;SDS011;5748;53.102;8.456;2024-03-06T00:35:00;4.90;;;4.50;;
11386;SDS011;5748;53.102;8.456;2024-03-06T00:37:26;4.73;;;4.33;;
11386;SDS011;5748;53.102;8.456;2024-03-06T00:39:53;4.77;;;4.30;;
11386;SDS011;5748;53.102;8.456;2024-03-06T00:42:22;4.63;;;4.23;;
11386;SDS011;5748;53.102;8.456;2024-03-06T00:44:49;4.77;;;4.37;;
11386;SDS011;5748;53.102;8.456;2024-03-06T00:47:16;4.83;;;4.43;;
11386;SDS011;5748;53.102;8.456;2024-03-06T00:49:43;4.63;;;4.23;;
11386;SDS011;5748;53.102;8.456;2024-03-06T00:52:10;4.50;;;4.10;;
11386;SDS011;5748;53.102;8.456;2024-03-06T00:54:37;4.90;;;4.40;;
11386;SDS011;5748;53.102;8.456;2024-03-06T00:57:05;5.17;;;4.70;;
11386;SDS011;5748;53.102;8.456;2024-03-06T00:59:33;4.33;;;3.93;;
11386;SDS011;5748;53.102;8.456;2024-03-06T01:02:00;4.87;;;4.37;;
11386;SDS011;5748;53.102;8.456;2024-03-06T01:04:27;5.03;;;4.53;;
11386;SDS011;5748;53.102;8.456;2024-03-06T01:06:54;4.90;;;4.50;;
11386;SDS011;5748;53.102;8.456;2024-03-06T01:09:22;4.80;;;4.33;;
11386;SDS011;5748;53.102;8.456;2024-03-06T01:11:49;4.67;;;4.27;;
11386;SDS011;5748;53.102;8.456;2024-03-06T01:14:16;4.83;;;4.43;;
11386;SDS011;5748;53.102;8.456;2024-03-06T01:16:45;4.57;;;4.17;;
11386;SDS011;5748;53.102;8.456;2024-03-06T01:19:12;4.47;;;4.07;;
11386;SDS011;5748;53.102;8.456;2024-03-06T01:21:39;4.97;;;4.53;;
11386;SDS011;5748;53.102;8.456;2024-03-06T01:24:06;4.90;;;4.50;;
11386;SDS011;5748;53.102;8.456;2024-03-06T01:26:33;4.80;;;4.40;;
11386;SDS011;5748;53.102;8.456;2024-03-06T01:29:00;4.27;;;3.87;;
11386;SDS011;5748;53.102;8.456;2024-03-06T01:31:27;5.00;;;4.60;;
11386;SDS011;5748;53.102;8.456;2024-03-06T01:33:55;5.00;;;4.60;;
11386;SDS011;5748;53.102;8.456;2024-03-06T01:36:23;5.10;;;4.70;;
11386;SDS011;5748;53.102;8.456;2024-03-06T01:38:50;5.03;;;4.63;;
11386;SDS011;5748;53.102;8.456;2024-03-06T01:41:17;4.60;;;4.20;;
11386;SDS011;5748;53.102;8.456;2024-03-06T01:43:44;4.67;;;4.27;;
11386;SDS011;5748;53.102;8.456;2024-03-06T01:46:12;4.73;;;4.33;;
11386;SDS011;5748;53.102;8.456;2024-03-06T01:48:39;5.00;;;4.60;;
11386;SDS011;5748;53.102;8.456;2024-03-06T01:51:09;5.33;;;4.83;;
11386;SDS011;5748;53.102;8.456;2024-03-06T01:53:36;4.83;;;4.43;;
11386;SDS011;5748;53.102;8.456;2024-03-06T01:56:04;5.00;;;4.60;;
11386;SDS011;5748;53.102;8.456;2024-03-06T01:58:31;5.03;;;4.60;;
11386;SDS011;5748;53.102;8.456;2024-03-06T02:01:00;5.17;;;4.77;;
11386;SDS011;5748;53.102;8.456;2024-03-06T02:03:27;5.27;;;4.87;;
11386;SDS011;5748;53.102;8.456;2024-03-06T02:05:58;5.07;;;4.60;;
11386;SDS011;5748;53.102;8.456;2024-03-06T02:08:30;4.97;;;4.57;;
11386;SDS011;5748;53.102;8.456;2024-03-06T02:10:58;4.87;;;4.47;;
11386;SDS011;5748;53.102;8.456;2024-03-06T02:13:27;5.30;;;4.80;;
11386;SDS011;5748;53.102;8.456;2024-03-06T02:15:54;5.50;;;5.00;;
11386;SDS011;5748;53.102;8.456;2024-03-06T02:18:21;5.37;;;4.87;;
11386;SDS011;5748;53.102;8.456;2024-03-06T02:20:49;4.53;;;4.13;;
11386;SDS011;5748;53.102;8.456;2024-03-06T02:23:17;4.57;;;4.17;;
11386;SDS011;5748;53.102;8.456;2024-03-06T02:25:45;4.93;;;4.53;;
11386;SDS011;5748;53.102;8.456;2024-03-06T02:28:13;5.07;;;4.60;;
11386;SDS011;5748;53.102;8.456;2024-03-06T02:30:41;4.93;;;4.53;;
11386;SDS011;5748;53.102;8.456;2024-03-06T02:33:08;4.77;;;4.37;;
11386;SDS011;5748;53.102;8.456;2024-03-06T02:35:35;4.80;;;4.40;;
11386;SDS011;5748;53.102;8.456;2024-03-06T02:38:05;4.77;;;4.37;;
11386;SDS011;5748;53.102;8.456;2024-03-06T02:40:32;5.23;;;4.73;;
11386;SDS011;5748;53.102;8.456;2024-03-06T02:42:59;5.10;;;4.60;;
11386;SDS011;5748;53.102;8.456;2024-03-06T02:45:26;5.13;;;4.67;;
11386;SDS011;5748;53.102;8.456;2024-03-06T02:47:54;4.93;;;4.53;;
11386;SDS011;5748;53.102;8.456;2024-03-06T02:50:21;5.00;;;4.60;;
11386;SDS011;5748;53.102;8.456;2024-03-06T02:52:48;5.23;;;4.73;;
11386;SDS011;5748;53.102;8.456;2024-03-06T02:55:18;5.33;;;4.83;;
11386;SDS011;5748;53.102;8.456;2024-03-06T02:57:45;5.03;;;4.63;;
11386;SDS011;5748;53.102;8.456;2024-03-06T03:00:13;5.50;;;5.00;;
11386;SDS011;5748;53.102;8.456;2024-03-06T03:02:41;5.27;;;4.77;;
11386;SDS011;5748;53.102;8.456;2024-03-06T03:05:08;6.00;;;5.50;;
11386;SDS011;5748;53.102;8.456;2024-03-06T03:07:35;5.00;;;4.60;;
11386;SDS011;5748;53.102;8.456;2024-03-06T03:10:02;4.80;;;4.40;;
11386;SDS011;5748;53.102;8.456;2024-03-06T03:12:32;5.07;;;4.67;;
11386;SDS011;5748;53.102;8.456;2024-03-06T03:14:59;5.47;;;5.07;;
11386;SDS011;5748;53.102;8.456;2024-03-06T03:17:27;5.17;;;4.77;;
11386;SDS011;5748;53.102;8.456;2024-03-06T03:19:54;4.93;;;4.53;;
11386;SDS011;5748;53.102;8.456;2024-03-06T03:22:21;4.87;;;4.47;;
11386;SDS011;5748;53.102;8.456;2024-03-06T03:24:48;5.20;;;4.70;;
11386;SDS011;5748;53.102;8.456;2024-03-06T03:27:15;5.07;;;4.67;;
11386;SDS011;5748;53.102;8.456;2024-03-06T03:29:44;5.20;;;4.70;;
11386;SDS011;5748;53.102;8.456;2024-03-06T03:32:11;5.30;;;4.80;;
11386;SDS011;5748;53.102;8.456;2024-03-06T03:34:38;5.53;;;5.03;;
11386;SDS011;5748;53.102;8.456;2024-03-06T03:37:05;5.17;;;4.67;;
11386;SDS011;5748;53.102;8.456;2024-03-06T03:39:34;5.70;;;5.20;;
11386;SDS011;5748;53.102;8.456;2024-03-06T03:42:01;5.23;;;4.73;;
11386;SDS011;5748;53.102;8.456;2024-03-06T03:44:28;5.80;;;5.30;;
11386;SDS011;5748;53.102;8.456;2024-03-06T03:46:56;5.43;;;4.93;;
11386;SDS011;5748;53.102;8.456;2024-03-06T03:49:23;5.50;;;5.00;;
11386;SDS011;5748;53.102;8.456;2024-03-06T03:51:51;5.50;;;5.00;;
11386;SDS011;5748;53.102;8.456;2024-03-06T03:54:18;5.77;;;5.27;;
11386;SDS011;5748;53.102;8.456;2024-03-06T03:56:45;5.43;;;4.93;;
11386;SDS011;5748;53.102;8.456;2024-03-06T03:59:12;5.63;;;5.13;;
11386;SDS011;5748;53.102;8.456;2024-03-06T04:01:39;5.17;;;4.77;;
11386;SDS011;5748;53.102;8.456;2024-03-06T04:04:07;6.17;;;5.57;;
11386;SDS011;5748;53.102;8.456;2024-03-06T04:06:34;5.70;;;5.20;;
11386;SDS011;5748;53.102;8.456;2024-03-06T04:09:01;5.50;;;5.00;;
11386;SDS011;5748;53.102;8.456;2024-03-06T04:11:29;5.50;;;5.00;;
11386;SDS011;5748;53.102;8.456;2024-03-06T04:13:58;6.00;;;5.50;;
11386;SDS011;5748;53.102;8.456;2024-03-06T04:16:25;5.30;;;4.80;;
11386;SDS011;5748;53.102;8.456;2024-03-06T04:18:52;5.37;;;4.87;;
11386;SDS011;5748;53.102;8.456;2024-03-06T04:21:21;6.00;;;5.10;;
11386;SDS011;5748;53.102;8.456;2024-03-06T04:23:48;5.23;;;4.73;;
11386;SDS011;5748;53.102;8.456;2024-03-06T04:26:15;5.07;;;4.57;;
11386;SDS011;5748;53.102;8.456;2024-03-06T04:28:42;4.90;;;4.40;;
11386;SDS011;5748;53.102;8.456;2024-03-06T04:31:10;4.63;;;4.10;;
11386;SDS011;5748;53.102;8.456;2024-03-06T04:33:37;4.63;;;4.23;;
11386;SDS011;5748;53.102;8.456;2024-03-06T04:36:04;5.13;;;4.67;;
11386;SDS011;5748;53.102;8.456;2024-03-06T04:38:33;5.50;;;5.00;;
11386;SDS011;5748;53.102;8.456;2024-03-06T04:41:00;5.33;;;4.83;;
11386;SDS011;5748;53.102;8.456;2024-03-06T04:43:28;5.47;;;4.97;;
11386;SDS011;5748;53.102;8.456;2024-03-06T04:45:55;4.83;;;4.43;;
11386;SDS011;5748;53.102;8.456;2024-03-06T04:48:22;5.60;;;5.10;;
11386;SDS011;5748;53.102;8.456;2024-03-06T04:50:49;5.80;;;5.30;;
11386;SDS011;5748;53.102;8.456;2024-03-06T04:53:16;5.73;;;5.23;;
11386;SDS011;5748;53.102;8.456;2024-03-06T04:55:46;5.80;;;5.30;;
11386;SDS011;5748;53.102;8.456;2024-03-06T04:58:13;5.43;;;4.93;;
11386;SDS011;5748;53.102;8.456;2024-03-06T05:00:40;6.43;;;5.83;;
11386;SDS011;5748;53.102;8.456;2024-03-06T05:03:07;5.53;;;4.80;;
11386;SDS011;5748;53.102;8.456;2024-03-06T05:05:34;5.63;;;5.03;;
11386;SDS011;5748;53.102;8.456;2024-03-06T05:08:01;6.17;;;5.60;;
11386;SDS011;5748;53.102;8.456;2024-03-06T05:10:29;6.00;;;5.30;;
11386;SDS011;5748;53.102;8.456;2024-03-06T05:12:57;5.60;;;5.10;;
11386;SDS011;5748;53.102;8.456;2024-03-06T05:15:24;5.67;;;5.17;;
11386;SDS011;5748;53.102;8.456;2024-03-06T05:17:51;5.07;;;4.57;;
11386;SDS011;5748;53.102;8.456;2024-03-06T05:20:19;5.43;;;4.93;;
11386;SDS011;5748;53.102;8.456;2024-03-06T05:22:46;5.70;;;5.20;;
11386;SDS011;5748;53.102;8.456;2024-03-06T05:25:13;5.73;;;5.23;;
11386;SDS011;5748;53.102;8.456;2024-03-06T05:27:40;5.20;;;4.70;;
11386;SDS011;5748;53.102;8.456;2024-03-06T05:30:09;6.13;;;5.63;;
11386;SDS011;5748;53.102;8.456;2024-03-06T05:32:37;5.93;;;5.43;;
11386;SDS011;5748;53.102;8.456;2024-03-06T05:35:04;6.40;;;5.80;;
11386;SDS011;5748;53.102;8.456;2024-03-06T05:37:34;6.03;;;5.43;;
11386;SDS011;5748;53.102;8.456;2024-03-06T05:40:01;6.10;;;5.60;;
11386;SDS011;5748;53.102;8.456;2024-03-06T05:42:30;6.50;;;5.90;;
11386;SDS011;5748;53.102;8.456;2024-03-06T05:44:57;6.10;;;5.60;;
11386;SDS011;5748;53.102;8.456;2024-03-06T05:47:31;5.37;;;4.87;;
11386;SDS011;5748;53.102;8.456;2024-03-06T05:49:59;5.73;;;5.10;;
11386;SDS011;5748;53.102;8.456;2024-03-06T05:52:29;6.40;;;5.80;;
11386;SDS011;5748;53.102;8.456;2024-03-06T05:54:56;6.20;;;5.70;;
11386;SDS011;5748;53.102;8.456;2024-03-06T05:57:23;6.33;;;5.77;;
11386;SDS011;5748;53.102;8.456;2024-03-06T05:59:50;5.83;;;5.33;;
11386;SDS011;5748;53.102;8.456;2024-03-06T06:02:18;5.37;;;4.90;;
11386;SDS011;5748;53.102;8.456;2024-03-06T06:04:47;5.60;;;5.10;;
11386;SDS011;5748;53.102;8.456;2024-03-06T06:07:14;5.40;;;4.90;;
11386;SDS011;5748;53.102;8.456;2024-03-06T06:09:41;5.70;;;5.20;;
11386;SDS011;5748;53.102;8.456;2024-03-06T06:12:08;7.00;;;5.23;;
11386;SDS011;5748;53.102;8.456;2024-03-06T06:14:35;5.70;;;5.20;;
11386;SDS011;5748;53.102;8.456;2024-03-06T06:17:02;5.80;;;5.30;;
11386;SDS011;5748;53.102;8.456;2024-03-06T06:19:29;5.77;;;5.20;;
11386;SDS011;5748;53.102;8.456;2024-03-06T06:21:58;5.70;;;5.20;;
11386;SDS011;5748;53.102;8.456;2024-03-06T06:24:25;5.80;;;5.30;;
11386;SDS011;5748;53.102;8.456;2024-03-06T06:26:52;6.07;;;5.57;;
11386;SDS011;5748;53.102;8.456;2024-03-06T06:29:19;5.80;;;5.30;;
11386;SDS011;5748;53.102;8.456;2024-03-06T06:31:46;6.23;;;5.53;;
11386;SDS011;5748;53.102;8.456;2024-03-06T06:34:13;6.33;;;5.83;;
11386;SDS011;5748;53.102;8.456;2024-03-06T06:36:44;5.27;;;4.83;;
11386;SDS011;5748;53.102;8.456;2024-03-06T06:39:13;5.13;;;4.70;;
11386;SDS011;5748;53.102;8.456;2024-03-06T06:41:41;5.37;;;4.87;;
11386;SDS011;5748;53.102;8.456;2024-03-06T06:44:09;5.83;;;5.27;;
11386;SDS011;5748;53.102;8.456;2024-03-06T06:46:36;6.40;;;5.80;;
11386;SDS011;5748;53.102;8.456;2024-03-06T06:49:05;6.17;;;5.57;;
11386;SDS011;5748;53.102;8.456;2024-03-06T06:51:32;6.10;;;5.60;;
11386;SDS011;5748;53.102;8.456;2024-03-06T06:54:00;5.77;;;5.27;;
11386;SDS011;5748;53.102;8.456;2024-03-06T06:56:30;6.47;;;5.87;;
11386;SDS011;5748;53.102;8.456;2024-03-06T06:58:57;5.40;;;4.90;;
11386;SDS011;5748;53.102;8.456;2024-03-06T07:01:24;5.93;;;5.33;;
11386;SDS011;5748;53.102;8.456;2024-03-06T07:03:52;5.90;;;5.40;;
11386;SDS011;5748;53.102;8.456;2024-03-06T07:06:19;6.10;;;5.60;;
11386;SDS011;5748;53.102;8.456;2024-03-06T07:08:46;5.83;;;5.20;;
11386;SDS011;5748;53.102;8.456;2024-03-06T07:11:13;6.63;;;6.07;;
11386;SDS011;5748;53.102;8.456;2024-03-06T07:13:44;5.90;;;5.40;;
11386;SDS011;5748;53.102;8.456;2024-03-06T07:16:11;6.47;;;5.87;;
11386;SDS011;5748;53.102;8.456;2024-03-06T07:18:38;6.27;;;5.67;;
11386;SDS011;5748;53.102;8.456;2024-03-06T07:21:05;5.60;;;5.10;;
11386;SDS011;5748;53.102;8.456;2024-03-06T07:23:32;6.03;;;5.43;;
11386;SDS011;5748;53.102;8.456;2024-03-06T07:25:59;5.67;;;5.17;;
11386;SDS011;5748;53.102;8.456;2024-03-06T07:28:26;6.43;;;5.83;;
11386;SDS011;5748;53.102;8.456;2024-03-06T07:30:55;5.50;;;5.00;;
11386;SDS011;5748;53.102;8.456;2024-03-06T07:33:22;5.70;;;5.20;;
11386;SDS011;5748;53.102;8.456;2024-03-06T07:35:49;5.80;;;5.30;;
11386;SDS011;5748;53.102;8.456;2024-03-06T07:38:16;5.73;;;5.23;;
11386;SDS011;5748;53.102;8.456;2024-03-06T07:40:43;6.17;;;5.67;;
11386;SDS011;5748;53.102;8.456;2024-03-06T07:43:10;5.60;;;5.10;;
11386;SDS011;5748;53.102;8.456;2024-03-06T07:45:38;6.10;;;5.60;;
11386;SDS011;5748;53.102;8.456;2024-03-06T07:48:07;6.23;;;5.63;;
11386;SDS011;5748;53.102;8.456;2024-03-06T07:50:34;6.13;;;5.63;;
11386;SDS011;5748;53.102;8.456;2024-03-06T07:53:03;6.50;;;5.80;;
11386;SDS011;5748;53.102;8.456;2024-03-06T07:55:30;6.40;;;5.80;;
11386;SDS011;5748;53.102;8.456;2024-03-06T07:57:57;6.27;;;5.67;;
11386;SDS011;5748;53.102;8.456;2024-03-06T08:00:24;6.57;;;5.87;;
11386;SDS011;5748;53.102;8.456;2024-03-06T08:02:52;6.10;;;5.60;;
11386;SDS011;5748;53.102;8.456;2024-03-06T08:05:20;5.80;;;5.30;;
11386;SDS011;5748;53.102;8.456;2024-03-06T08:07:47;6.13;;;5.60;;
11386;SDS011;5748;53.102;8.456;2024-03-06T08:10:14;5.87;;;5.37;;
11386;SDS011;5748;53.102;8.456;2024-03-06T08:12:44;6.40;;;5.80;;
11386;SDS011;5748;53.102;8.456;2024-03-06T08:15:13;6.23;;;5.73;;
11386;SDS011;5748;53.102;8.456;2024-03-06T08:17:41;5.87;;;5.37;;
11386;SDS011;5748;53.102;8.456;2024-03-06T08:20:10;6.23;;;5.63;;
11386;SDS011;5748;53.102;8.456;2024-03-06T08:22:40;6.13;;;5.53;;
11386;SDS011;5748;53.102;8.456;2024-03-06T08:25:09;7.03;;;6.33;;
11386;SDS011;5748;53.102;8.456;2024-03-06T08:27:38;6.30;;;5.70;;
11386;SDS011;5748;53.102;8.456;2024-03-06T08:30:07;6.27;;;5.67;;
11386;SDS011;5748;53.102;8.456;2024-03-06T08:32:35;5.83;;;5.23;;
11386;SDS011;5748;53.102;8.456;2024-03-06T08:35:03;7.30;;;5.83;;
11386;SDS011;5748;53.102;8.456;2024-03-06T08:37:31;6.13;;;5.53;;
11386;SDS011;5748;53.102;8.456;2024-03-06T08:40:00;5.77;;;5.23;;
11386;SDS011;5748;53.102;8.456;2024-03-06T08:42:27;6.57;;;5.97;;
11386;SDS011;5748;53.102;8.456;2024-03-06T08:44:54;6.00;;;5.50;;
11386;SDS011;5748;53.102;8.456;2024-03-06T08:47:21;6.80;;;6.17;;
11386;SDS011;5748;53.102;8.456;2024-03-06T08:49:48;7.53;;;6.73;;
11386;SDS011;5748;53.102;8.456;2024-03-06T08:52:16;6.67;;;6.07;;
11386;SDS011;5748;53.102;8.456;2024-03-06T08:54:43;6.57;;;5.97;;
11386;SDS011;5748;53.102;8.456;2024-03-06T08:57:11;6.00;;;5.40;;
11386;SDS011;5748;53.102;8.456;2024-03-06T08:59:38;6.53;;;5.93;;
11386;SDS011;5748;53.102;8.456;2024-03-06T09:02:12;6.10;;;5.50;;
11386;SDS011;5748;53.102;8.456;2024-03-06T09:04:40;6.40;;;5.80;;
11386;SDS011;5748;53.102;8.456;2024-03-06T09:07:08;6.20;;;5.60;;
11386;SDS011;5748;53.102;8.456;2024-03-06T09:09:35;6.10;;;5.60;;
11386;SDS011;5748;53.102;8.456;2024-03-06T09:12:03;6.60;;;6.00;;
11386;SDS011;5748;53.102;8.456;2024-03-06T09:14:32;5.80;;;5.30;;
11386;SDS011;5748;53.102;8.456;2024-03-06T09:17:00;5.87;;;5.37;;
11386;SDS011;5748;53.102;8.456;2024-03-06T09:19:27;6.03;;;5.43;;
11386;SDS011;5748;53.102;8.456;2024-03-06T09:21:55;5.53;;;5.03;;
11386;SDS011;5748;53.102;8.456;2024-03-06T09:24:22;5.07;;;4.57;;
11386;SDS011;5748;53.102;8.456;2024-03-06T09:26:51;5.53;;;5.00;;
11386;SDS011;5748;53.102;8.456;2024-03-06T09:29:18;5.47;;;4.97;;
11386;SDS011;5748;53.102;8.456;2024-03-06T09:31:47;5.80;;;5.20;;
11386;SDS011;5748;53.102;8.456;2024-03-06T09:34:14;5.10;;;4.60;;
11386;SDS011;5748;53.102;8.456;2024-03-06T09:36:45;4.73;;;4.33;;
11386;SDS011;5748;53.102;8.456;2024-03-06T09:39:13;4.90;;;4.43;;
11386;SDS011;5748;53.102;8.456;2024-03-06T09:41:42;4.83;;;4.43;;
11386;SDS011;5748;53.102;8.456;2024-03-06T09:44:11;5.07;;;4.57;;
11386;SDS011;5748;53.102;8.456;2024-03-06T09:46:38;4.93;;;4.43;;
11386;SDS011;5748;53.102;8.456;2024-03-06T09:49:10;6.27;;;4.70;;
11386;SDS011;5748;53.102;8.456;2024-03-06T09:51:40;5.20;;;4.70;;
11386;SDS011;5748;53.102;8.456;2024-03-06T09:54:11;5.23;;;4.57;;
11386;SDS011;5748;53.102;8.456;2024-03-06T09:56:41;5.03;;;4.53;;
11386;SDS011;5748;53.102;8.456;2024-03-06T09:59:10;5.07;;;4.57;;
11386;SDS011;5748;53.102;8.456;2024-03-06T10:01:38;5.50;;;5.00;;
11386;SDS011;5748;53.102;8.456;2024-03-06T10:04:20;6.70;;;5.37;;
11386;SDS011;5748;53.102;8.456;2024-03-06T10:06:49;4.97;;;4.47;;
11386;SDS011;5748;53.102;8.456;2024-03-06T10:09:18;5.10;;;4.60;;
11386;SDS011;5748;53.102;8.456;2024-03-06T10:11:45;5.13;;;4.63;;
11386;SDS011;5748;53.102;8.456;2024-03-06T10:14:12;5.03;;;4.53;;
11386;SDS011;5748;53.102;8.456;2024-03-06T10:16:51;6.00;;;4.80;;
11386;SDS011;5748;53.102;8.456;2024-03-06T10:19:22;5.17;;;4.67;;
11386;SDS011;5748;53.102;8.456;2024-03-06T10:21:52;5.03;;;4.57;;
11386;SDS011;5748;53.102;8.456;2024-03-06T10:24:20;4.70;;;4.20;;
11386;SDS011;5748;53.102;8.456;2024-03-06T10:26:49;5.20;;;4.80;;
11386;SDS011;5748;53.102;8.456;2024-03-06T10:29:19;4.87;;;4.43;;
11386;SDS011;5748;53.102;8.456;2024-03-06T10:31:49;5.30;;;4.70;;
11386;SDS011;5748;53.102;8.456;2024-03-06T10:34:20;5.13;;;4.63;;
11386;SDS011;5748;53.102;8.456;2024-03-06T10:36:52;4.57;;;4.17;;
11386;SDS011;5748;53.102;8.456;2024-03-06T10:39:21;5.27;;;4.20;;
11386;SDS011;5748;53.102;8.456;2024-03-06T10:41:51;5.23;;;4.73;;
11386;SDS011;5748;53.102;8.456;2024-03-06T10:44:20;4.90;;;4.50;;
11386;SDS011;5748;53.102;8.456;2024-03-06T10:46:51;5.50;;;4.70;;
11386;SDS011;5748;53.102;8.456;2024-03-06T10:49:26;5.03;;;4.53;;
11386;SDS011;5748;53.102;8.456;2024-03-06T10:51:57;4.83;;;4.43;;
11386;SDS011;5748;53.102;8.456;2024-03-06T10:54:26;6.27;;;4.60;;
11386;SDS011;5748;53.102;8.456;2024-03-06T10:56:55;7.07;;;4.60;;
11386;SDS011;5748;53.102;8.456;2024-03-06T10:59:24;5.10;;;4.60;;
11386;SDS011;5748;53.102;8.456;2024-03-06T11:01:54;5.70;;;5.10;;
11386;SDS011;5748;53.102;8.456;2024-03-06T11:04:23;4.77;;;4.37;;
11386;SDS011;5748;53.102;8.456;2024-03-06T11:06:55;4.90;;;4.40;;
11386;SDS011;5748;53.102;8.456;2024-03-06T11:09:23;5.40;;;4.90;;
11386;SDS011;5748;53.102;8.456;2024-03-06T11:11:50;6.10;;;5.60;;
11386;SDS011;5748;53.102;8.456;2024-03-06T11:14:18;6.10;;;5.50;;
11386;SDS011;5748;53.102;8.456;2024-03-06T11:17:03;5.17;;;4.77;;
11386;SDS011;5748;53.102;8.456;2024-03-06T11:28:29;5.33;;;4.83;;
11386;SDS011;5748;53.102;8.456;2024-03-06T11:30:58;5.50;;;5.00;;
11386;SDS011;5748;53.102;8.456;2024-03-06T11:33:36;4.77;;;4.37;;
11386;SDS011;5748;53.102;8.456;2024-03-06T11:36:16;5.53;;;5.03;;
11386;SDS011;5748;53.102;8.456;2024-03-06T11:38:51;5.00;;;4.60;;
11386;SDS011;5748;53.102;8.456;2024-03-06T11:41:20;4.88;;;4.47;;
11386;SDS011;5748;53.102;8.456;2024-03-06T11:43:49;4.50;;;4.10;;
11386;SDS011;5748;53.102;8.456;2024-03-06T11:46:18;4.40;;;4.00;;
11386;SDS011;5748;53.102;8.456;2024-03-06T11:48:53;4.55;;;4.15;;
11386;SDS011;5748;53.102;8.456;2024-03-06T11:51:22;4.82;;;4.15;;
11386;SDS011;5748;53.102;8.456;2024-03-06T11:53:51;4.05;;;3.72;;
11386;SDS011;5748;53.102;8.456;2024-03-06T11:56:19;4.93;;;4.53;;
11386;SDS011;5748;53.102;8.456;2024-03-06T11:58:47;4.63;;;4.22;;
11386;SDS011;5748;53.102;8.456;2024-03-06T12:01:14;4.50;;;4.10;;
11386;SDS011;5748;53.102;8.456;2024-03-06T12:03:41;5.13;;;4.72;;
11386;SDS011;5748;53.102;8.456;2024-03-06T12:06:09;4.70;;;4.30;;
11386;SDS011;5748;53.102;8.456;2024-03-06T12:08:38;4.80;;;4.32;;
11386;SDS011;5748;53.102;8.456;2024-03-06T12:11:06;4.53;;;4.13;;
11386;SDS011;5748;53.102;8.456;2024-03-06T12:13:33;4.53;;;4.13;;
11386;SDS011;5748;53.102;8.456;2024-03-06T12:16:03;4.50;;;4.10;;
11386;SDS011;5748;53.102;8.456;2024-03-06T12:18:32;4.60;;;4.20;;
11386;SDS011;5748;53.102;8.456;2024-03-06T12:21:00;4.53;;;4.13;;
11386;SDS011;5748;53.102;8.456;2024-03-06T12:23:29;5.10;;;4.57;;
11386;SDS011;5748;53.102;8.456;2024-03-06T12:26:07;4.32;;;4.03;;
11386;SDS011;5748;53.102;8.456;2024-03-06T12:28:36;4.60;;;4.20;;
11386;SDS011;5748;53.102;8.456;2024-03-06T12:31:03;4.90;;;4.50;;
11386;SDS011;5748;53.102;8.456;2024-03-06T12:33:32;5.00;;;4.50;;
11386;SDS011;5748;53.102;8.456;2024-03-06T12:36:01;5.43;;;4.93;;
11386;SDS011;5748;53.102;8.456;2024-03-06T12:38:30;5.30;;;4.80;;
11386;SDS011;5748;53.102;8.456;2024-03-06T12:40:57;5.75;;;5.25;;
11386;SDS011;5748;53.102;8.456;2024-03-06T12:43:26;4.75;;;4.30;;
11386;SDS011;5748;53.102;8.456;2024-03-06T12:45:54;4.60;;;4.20;;
11386;SDS011;5748;53.102;8.456;2024-03-06T12:48:22;5.45;;;4.93;;
11386;SDS011;5748;53.102;8.456;2024-03-06T12:50:50;4.82;;;4.43;;
11386;SDS011;5748;53.102;8.456;2024-03-06T12:53:19;4.97;;;4.57;;
11386;SDS011;5748;53.102;8.456;2024-03-06T12:55:47;5.20;;;4.80;;
11386;SDS011;5748;53.102;8.456;2024-03-06T12:58:14;5.30;;;4.68;;
11386;SDS011;5748;53.102;8.456;2024-03-06T13:00:43;5.22;;;4.82;;
11386;SDS011;5748;53.102;8.456;2024-03-06T13:03:10;5.07;;;4.57;;
11386;SDS011;5748;53.102;8.456;2024-03-06T13:05:37;4.50;;;4.03;;
11386;SDS011;5748;53.102;8.456;2024-03-06T13:08:04;5.20;;;4.70;;
11386;SDS011;5748;53.102;8.456;2024-03-06T13:10:31;5.85;;;5.25;;
11386;SDS011;5748;53.102;8.456;2024-03-06T13:13:00;5.78;;;5.28;;
11386;SDS011;5748;53.102;8.456;2024-03-06T13:15:27;5.60;;;5.10;;
11386;SDS011;5748;53.102;8.456;2024-03-06T13:17:56;5.07;;;4.68;;
11386;SDS011;5748;53.102;8.456;2024-03-06T13:20:23;5.30;;;4.80;;
11386;SDS011;5748;53.102;8.456;2024-03-06T13:22:50;5.57;;;5.07;;
11386;SDS011;5748;53.102;8.456;2024-03-06T13:25:16;6.03;;;5.43;;
11386;SDS011;5748;53.102;8.456;2024-03-06T13:27:44;5.80;;;5.30;;
11386;SDS011;5748;53.102;8.456;2024-03-06T13:30:11;5.78;;;5.18;;
11386;SDS011;5748;53.102;8.456;2024-03-06T13:32:40;6.90;;;5.68;;
11386;SDS011;5748;53.102;8.456;2024-03-06T13:35:11;5.63;;;5.13;;
11386;SDS011;5748;53.102;8.456;2024-03-06T13:37:39;5.17;;;4.67;;
11386;SDS011;5748;53.102;8.456;2024-03-06T13:40:07;6.10;;;5.50;;
11386;SDS011;5748;53.102;8.456;2024-03-06T13:42:38;7.53;;;6.55;;
11386;SDS011;5748;53.102;8.456;2024-03-06T13:45:05;6.13;;;5.53;;
11386;SDS011;5748;53.102;8.456;2024-03-06T13:47:37;5.60;;;5.03;;
11386;SDS011;5748;53.102;8.456;2024-03-06T13:50:05;5.80;;;5.03;;
11386;SDS011;5748;53.102;8.456;2024-03-06T13:52:36;6.20;;;5.43;;
11386;SDS011;5748;53.102;8.456;2024-03-06T13:55:03;5.90;;;5.40;;
11386;SDS011;5748;53.102;8.456;2024-03-06T13:57:31;5.83;;;5.33;;
11386;SDS011;5748;53.102;8.456;2024-03-06T13:59:59;5.70;;;5.20;;
11386;SDS011;5748;53.102;8.456;2024-03-06T14:02:28;6.23;;;5.63;;
11386;SDS011;5748;53.102;8.456;2024-03-06T14:04:55;6.23;;;5.63;;
11386;SDS011;5748;53.102;8.456;2024-03-06T14:07:22;6.40;;;5.80;;
11386;SDS011;5748;53.102;8.456;2024-03-06T14:09:50;5.93;;;5.33;;
11386;SDS011;5748;53.102;8.456;2024-03-06T14:12:18;5.80;;;5.30;;
11386;SDS011;5748;53.102;8.456;2024-03-06T14:14:45;6.10;;;5.50;;
11386;SDS011;5748;53.102;8.456;2024-03-06T14:17:12;6.83;;;6.20;;
11386;SDS011;5748;53.102;8.456;2024-03-06T14:19:39;5.83;;;5.30;;
11386;SDS011;5748;53.102;8.456;2024-03-06T14:22:06;6.47;;;5.80;;
11386;SDS011;5748;53.102;8.456;2024-03-06T14:24:33;6.77;;;5.77;;
11386;SDS011;5748;53.102;8.456;2024-03-06T14:27:02;6.73;;;6.03;;
11386;SDS011;5748;53.102;8.456;2024-03-06T14:29:30;7.07;;;6.33;;
11386;SDS011;5748;53.102;8.456;2024-03-06T14:31:57;7.17;;;6.10;;
11386;SDS011;5748;53.102;8.456;2024-03-06T14:34:24;6.50;;;5.90;;
11386;SDS011;5748;53.102;8.456;2024-03-06T14:36:52;6.30;;;5.70;;
11386;SDS011;5748;53.102;8.456;2024-03-06T14:39:19;6.07;;;5.47;;
11386;SDS011;5748;53.102;8.456;2024-03-06T14:41:48;6.57;;;5.93;;
11386;SDS011;5748;53.102;8.456;2024-03-06T14:44:16;6.73;;;6.13;;
11386;SDS011;5748;53.102;8.456;2024-03-06T14:46:43;7.20;;;6.50;;
11386;SDS011;5748;53.102;8.456;2024-03-06T14:49:10;6.40;;;5.77;;
11386;SDS011;5748;53.102;8.456;2024-03-06T14:51:37;7.60;;;6.63;;
11386;SDS011;5748;53.102;8.456;2024-03-06T14:54:04;6.40;;;5.80;;
11386;SDS011;5748;53.102;8.456;2024-03-06T14:56:31;7.07;;;6.30;;
11386;SDS011;5748;53.102;8.456;2024-03-06T14:58:58;6.03;;;5.37;;
11386;SDS011;5748;53.102;8.456;2024-03-06T15:01:27;6.83;;;5.93;;
11386;SDS011;5748;53.102;8.456;2024-03-06T15:03:54;7.00;;;6.23;;
11386;SDS011;5748;53.102;8.456;2024-03-06T15:06:21;6.63;;;5.93;;
11386;SDS011;5748;53.102;8.456;2024-03-06T15:08:48;6.90;;;6.13;;
11386;SDS011;5748;53.102;8.456;2024-03-06T15:11:15;6.03;;;5.43;;
11386;SDS011;5748;53.102;8.456;2024-03-06T15:13:42;6.80;;;6.10;;